sensor_id;sensor_type;location;lat;lon;timestamp;P1;durP1;ratioP1;P2;durP2;ratioP2
54899;SDS011;40801;41.924;25.562;2023-12-20T00:02:07;19.40;;;16.80;;
54899;SDS011;40801;41.924;25.562;2023-12-20T00:04:32;19.88;;;16.35;;
54899;SDS011;40801;41.924;25.562;2023-12-20T00:06:58;25.15;;;18.58;;
54899;SDS011;40801;41.924;25.562;2023-12-20T00:09:23;24.10;;;20.67;;
54899;SDS011;40801;41.924;25.562;2023-12-20T00:11:49;23.15;;;20.73;;
54899;SDS011;40801;41.924;25.562;2023-12-20T00:14:14;26.85;;;20.67;;
54899;SDS011;40801;41.924;25.562;2023-12-20T00:16:40;23.65;;;18.67;;
54899;SDS011;40801;41.924;25.562;2023-12-20T00:19:05;104.03;;;62.45;;
54899;SDS011;40801;41.924;25.562;2023-12-20T00:21:30;62.85;;;41.05;;
54899;SDS011;40801;41.924;25.562;2023-12-20T00:23:56;38.97;;;25.77;;
54899;SDS011;40801;41.924;25.562;2023-12-20T00:26:21;28.30;;;21.65;;
54899;SDS011;40801;41.924;25.562;2023-12-20T00:28:46;25.20;;;18.90;;
54899;SDS011;40801;41.924;25.562;2023-12-20T00:31:12;31.23;;;22.58;;
54899;SDS011;40801;41.924;25.562;2023-12-20T00:33:37;23.77;;;20.52;;
54899;SDS011;40801;41.924;25.562;2023-12-20T00:36:04;24.60;;;19.67;;
54899;SDS011;40801;41.924;25.562;2023-12-20T00:38:30;25.88;;;20.80;;
54899;SDS011;40801;41.924;25.562;2023-12-20T00:40:56;41.63;;;31.25;;
54899;SDS011;40801;41.924;25.562;2023-12-20T00:43:21;42.67;;;30.30;;
54899;SDS011;40801;41.924;25.562;2023-12-20T00:45:47;36.85;;;27.58;;
54899;SDS011;40801;41.924;25.562;2023-12-20T00:48:12;35.72;;;26.45;;
54899;SDS011;40801;41.924;25.562;2023-12-20T00:50:37;36.13;;;28.75;;
54899;SDS011;40801;41.924;25.562;2023-12-20T00:53:03;34.92;;;28.88;;
54899;SDS011;40801;41.924;25.562;2023-12-20T00:55:28;35.05;;;27.35;;
54899;SDS011;40801;41.924;25.562;2023-12-20T00:57:54;29.15;;;24.95;;
54899;SDS011;40801;41.924;25.562;2023-12-20T01:00:19;29.60;;;24.70;;
54899;SDS011;40801;41.924;25.562;2023-12-20T01:02:44;31.67;;;24.33;;
54899;SDS011;40801;41.924;25.562;2023-12-20T01:05:11;28.20;;;20.77;;
54899;SDS011;40801;41.924;25.562;2023-12-20T01:07:37;24.10;;;19.13;;
54899;SDS011;40801;41.924;25.562;2023-12-20T01:10:02;19.98;;;17.42;;
54899;SDS011;40801;41.924;25.562;2023-12-20T01:12:28;27.52;;;20.17;;
54899;SDS011;40801;41.924;25.562;2023-12-20T01:14:53;19.40;;;16.80;;
54899;SDS011;40801;41.924;25.562;2023-12-20T01:17:19;25.05;;;18.25;;
54899;SDS011;40801;41.924;25.562;2023-12-20T01:19:44;26.90;;;19.73;;
54899;SDS011;40801;41.924;25.562;2023-12-20T01:22:10;19.73;;;16.80;;
54899;SDS011;40801;41.924;25.562;2023-12-20T01:24:35;20.65;;;17.23;;
54899;SDS011;40801;41.924;25.562;2023-12-20T01:27:00;18.70;;;16.70;;
54899;SDS011;40801;41.924;25.562;2023-12-20T01:29:26;20.08;;;17.80;;
54899;SDS011;40801;41.924;25.562;2023-12-20T01:31:51;18.85;;;16.83;;
54899;SDS011;40801;41.924;25.562;2023-12-20T01:34:17;26.55;;;19.83;;
54899;SDS011;40801;41.924;25.562;2023-12-20T01:36:42;73.80;;;51.22;;
54899;SDS011;40801;41.924;25.562;2023-12-20T01:39:08;32.85;;;24.08;;
54899;SDS011;40801;41.924;25.562;2023-12-20T01:41:33;29.88;;;20.65;;
54899;SDS011;40801;41.924;25.562;2023-12-20T01:43:59;21.83;;;17.25;;
54899;SDS011;40801;41.924;25.562;2023-12-20T01:46:24;17.25;;;13.35;;
54899;SDS011;40801;41.924;25.562;2023-12-20T01:48:50;14.18;;;12.50;;
54899;SDS011;40801;41.924;25.562;2023-12-20T01:51:16;17.75;;;14.30;;
54899;SDS011;40801;41.924;25.562;2023-12-20T01:53:42;24.85;;;19.88;;
54899;SDS011;40801;41.924;25.562;2023-12-20T01:56:08;20.80;;;17.48;;
54899;SDS011;40801;41.924;25.562;2023-12-20T01:58:36;28.00;;;20.25;;
54899;SDS011;40801;41.924;25.562;2023-12-20T02:01:05;22.70;;;17.15;;
54899;SDS011;40801;41.924;25.562;2023-12-20T02:03:31;23.17;;;17.95;;
54899;SDS011;40801;41.924;25.562;2023-12-20T02:05:56;20.90;;;15.52;;
54899;SDS011;40801;41.924;25.562;2023-12-20T02:08:22;19.17;;;14.75;;
54899;SDS011;40801;41.924;25.562;2023-12-20T02:10:47;18.85;;;14.80;;
54899;SDS011;40801;41.924;25.562;2023-12-20T02:13:12;20.45;;;15.85;;
54899;SDS011;40801;41.924;25.562;2023-12-20T02:15:38;11.93;;;10.15;;
54899;SDS011;40801;41.924;25.562;2023-12-20T02:18:04;13.73;;;9.85;;
54899;SDS011;40801;41.924;25.562;2023-12-20T02:20:30;12.02;;;9.05;;
54899;SDS011;40801;41.924;25.562;2023-12-20T02:22:55;11.30;;;9.60;;
54899;SDS011;40801;41.924;25.562;2023-12-20T02:25:21;13.18;;;9.90;;
54899;SDS011;40801;41.924;25.562;2023-12-20T02:27:46;11.25;;;8.55;;
54899;SDS011;40801;41.924;25.562;2023-12-20T02:30:12;11.60;;;9.25;;
54899;SDS011;40801;41.924;25.562;2023-12-20T02:32:38;12.15;;;10.73;;
54899;SDS011;40801;41.924;25.562;2023-12-20T02:35:03;36.22;;;23.13;;
54899;SDS011;40801;41.924;25.562;2023-12-20T02:37:29;12.27;;;10.48;;
54899;SDS011;40801;41.924;25.562;2023-12-20T02:39:55;9.73;;;8.57;;
54899;SDS011;40801;41.924;25.562;2023-12-20T02:42:20;11.95;;;9.75;;
54899;SDS011;40801;41.924;25.562;2023-12-20T02:44:45;9.95;;;9.00;;
54899;SDS011;40801;41.924;25.562;2023-12-20T02:47:11;21.42;;;15.30;;
54899;SDS011;40801;41.924;25.562;2023-12-20T02:49:36;13.80;;;10.52;;
54899;SDS011;40801;41.924;25.562;2023-12-20T02:52:02;14.52;;;10.57;;
54899;SDS011;40801;41.924;25.562;2023-12-20T02:54:27;13.57;;;10.23;;
54899;SDS011;40801;41.924;25.562;2023-12-20T02:56:52;12.45;;;10.13;;
54899;SDS011;40801;41.924;25.562;2023-12-20T02:59:18;12.70;;;10.68;;
54899;SDS011;40801;41.924;25.562;2023-12-20T03:01:44;11.98;;;9.82;;
54899;SDS011;40801;41.924;25.562;2023-12-20T03:04:11;10.27;;;7.88;;
54899;SDS011;40801;41.924;25.562;2023-12-20T03:06:36;9.40;;;7.13;;
54899;SDS011;40801;41.924;25.562;2023-12-20T03:09:02;11.05;;;7.07;;
54899;SDS011;40801;41.924;25.562;2023-12-20T03:11:27;9.55;;;8.55;;
54899;SDS011;40801;41.924;25.562;2023-12-20T03:13:53;17.90;;;10.02;;
54899;SDS011;40801;41.924;25.562;2023-12-20T03:16:19;12.32;;;9.68;;
54899;SDS011;40801;41.924;25.562;2023-12-20T03:18:44;11.68;;;7.70;;
54899;SDS011;40801;41.924;25.562;2023-12-20T03:21:10;10.10;;;8.88;;
54899;SDS011;40801;41.924;25.562;2023-12-20T03:23:35;8.85;;;7.00;;
54899;SDS011;40801;41.924;25.562;2023-12-20T03:26:00;15.68;;;10.15;;
54899;SDS011;40801;41.924;25.562;2023-12-20T03:28:26;33.58;;;20.42;;
54899;SDS011;40801;41.924;25.562;2023-12-20T03:30:52;10.68;;;9.38;;
54899;SDS011;40801;41.924;25.562;2023-12-20T03:33:18;10.65;;;8.60;;
54899;SDS011;40801;41.924;25.562;2023-12-20T03:35:43;12.32;;;8.70;;
54899;SDS011;40801;41.924;25.562;2023-12-20T03:38:09;9.25;;;8.32;;
54899;SDS011;40801;41.924;25.562;2023-12-20T03:40:34;8.35;;;7.25;;
54899;SDS011;40801;41.924;25.562;2023-12-20T03:43:00;8.35;;;7.55;;
54899;SDS011;40801;41.924;25.562;2023-12-20T03:45:25;8.35;;;7.53;;
54899;SDS011;40801;41.924;25.562;2023-12-20T03:47:51;9.45;;;7.95;;
54899;SDS011;40801;41.924;25.562;2023-12-20T03:50:20;10.95;;;8.38;;
54899;SDS011;40801;41.924;25.562;2023-12-20T03:52:47;9.73;;;8.60;;
54899;SDS011;40801;41.924;25.562;2023-12-20T03:55:12;10.75;;;9.30;;
54899;SDS011;40801;41.924;25.562;2023-12-20T03:57:38;11.85;;;10.73;;
54899;SDS011;40801;41.924;25.562;2023-12-20T04:00:04;10.80;;;9.70;;
54899;SDS011;40801;41.924;25.562;2023-12-20T04:02:30;12.18;;;10.95;;
54899;SDS011;40801;41.924;25.562;2023-12-20T04:04:56;11.93;;;10.30;;
54899;SDS011;40801;41.924;25.562;2023-12-20T04:07:21;17.75;;;11.93;;
54899;SDS011;40801;41.924;25.562;2023-12-20T04:09:46;16.27;;;11.75;;
54899;SDS011;40801;41.924;25.562;2023-12-20T04:12:13;13.90;;;10.02;;
54899;SDS011;40801;41.924;25.562;2023-12-20T04:14:38;13.75;;;9.90;;
54899;SDS011;40801;41.924;25.562;2023-12-20T04:17:03;17.63;;;11.35;;
54899;SDS011;40801;41.924;25.562;2023-12-20T04:19:29;16.45;;;11.02;;
54899;SDS011;40801;41.924;25.562;2023-12-20T04:21:54;15.77;;;11.75;;
54899;SDS011;40801;41.924;25.562;2023-12-20T04:24:20;18.75;;;12.02;;
54899;SDS011;40801;41.924;25.562;2023-12-20T04:26:45;14.40;;;11.45;;
54899;SDS011;40801;41.924;25.562;2023-12-20T04:29:10;16.55;;;12.52;;
54899;SDS011;40801;41.924;25.562;2023-12-20T04:31:36;14.13;;;11.65;;
54899;SDS011;40801;41.924;25.562;2023-12-20T04:34:01;17.42;;;13.65;;
54899;SDS011;40801;41.924;25.562;2023-12-20T04:36:27;16.48;;;12.27;;
54899;SDS011;40801;41.924;25.562;2023-12-20T04:38:54;15.13;;;11.20;;
54899;SDS011;40801;41.924;25.562;2023-12-20T04:41:20;15.77;;;11.63;;
54899;SDS011;40801;41.924;25.562;2023-12-20T04:43:45;15.52;;;10.63;;
54899;SDS011;40801;41.924;25.562;2023-12-20T04:46:11;12.60;;;11.30;;
54899;SDS011;40801;41.924;25.562;2023-12-20T04:48:36;14.60;;;11.38;;
54899;SDS011;40801;41.924;25.562;2023-12-20T04:51:01;14.20;;;10.77;;
54899;SDS011;40801;41.924;25.562;2023-12-20T04:53:27;15.52;;;12.88;;
54899;SDS011;40801;41.924;25.562;2023-12-20T04:55:53;16.00;;;14.27;;
54899;SDS011;40801;41.924;25.562;2023-12-20T04:58:18;18.42;;;15.48;;
54899;SDS011;40801;41.924;25.562;2023-12-20T05:00:44;19.90;;;16.30;;
54899;SDS011;40801;41.924;25.562;2023-12-20T05:03:09;17.08;;;15.00;;
54899;SDS011;40801;41.924;25.562;2023-12-20T05:05:35;20.52;;;15.85;;
54899;SDS011;40801;41.924;25.562;2023-12-20T05:08:00;23.27;;;16.80;;
54899;SDS011;40801;41.924;25.562;2023-12-20T05:10:26;21.10;;;16.63;;
54899;SDS011;40801;41.924;25.562;2023-12-20T05:12:52;19.83;;;15.57;;
54899;SDS011;40801;41.924;25.562;2023-12-20T05:15:17;22.58;;;15.13;;
54899;SDS011;40801;41.924;25.562;2023-12-20T05:17:43;20.42;;;15.93;;
54899;SDS011;40801;41.924;25.562;2023-12-20T05:20:08;23.27;;;19.40;;
54899;SDS011;40801;41.924;25.562;2023-12-20T05:22:34;24.73;;;19.15;;
54899;SDS011;40801;41.924;25.562;2023-12-20T05:24:59;23.48;;;18.60;;
54899;SDS011;40801;41.924;25.562;2023-12-20T05:27:24;29.10;;;20.88;;
54899;SDS011;40801;41.924;25.562;2023-12-20T05:29:50;28.50;;;24.55;;
54899;SDS011;40801;41.924;25.562;2023-12-20T05:32:15;29.67;;;24.73;;
54899;SDS011;40801;41.924;25.562;2023-12-20T05:34:41;42.28;;;34.90;;
54899;SDS011;40801;41.924;25.562;2023-12-20T05:37:06;44.97;;;35.40;;
54899;SDS011;40801;41.924;25.562;2023-12-20T05:39:31;39.65;;;33.00;;
54899;SDS011;40801;41.924;25.562;2023-12-20T05:41:57;43.15;;;34.33;;
54899;SDS011;40801;41.924;25.562;2023-12-20T05:44:22;37.00;;;29.77;;
54899;SDS011;40801;41.924;25.562;2023-12-20T05:46:48;37.47;;;29.80;;
54899;SDS011;40801;41.924;25.562;2023-12-20T05:49:13;37.42;;;30.65;;
54899;SDS011;40801;41.924;25.562;2023-12-20T05:51:39;41.25;;;33.90;;
54899;SDS011;40801;41.924;25.562;2023-12-20T05:54:04;34.30;;;27.08;;
54899;SDS011;40801;41.924;25.562;2023-12-20T05:56:30;31.52;;;27.85;;
54899;SDS011;40801;41.924;25.562;2023-12-20T05:58:55;43.83;;;30.58;;
54899;SDS011;40801;41.924;25.562;2023-12-20T06:01:20;33.20;;;27.73;;
54899;SDS011;40801;41.924;25.562;2023-12-20T06:03:46;33.88;;;28.55;;
54899;SDS011;40801;41.924;25.562;2023-12-20T06:06:11;38.28;;;30.15;;
54899;SDS011;40801;41.924;25.562;2023-12-20T06:08:38;39.42;;;31.02;;
54899;SDS011;40801;41.924;25.562;2023-12-20T06:11:03;38.13;;;33.72;;
54899;SDS011;40801;41.924;25.562;2023-12-20T06:13:29;42.83;;;36.83;;
54899;SDS011;40801;41.924;25.562;2023-12-20T06:15:54;69.05;;;54.35;;
54899;SDS011;40801;41.924;25.562;2023-12-20T06:18:20;57.85;;;46.38;;
54899;SDS011;40801;41.924;25.562;2023-12-20T06:20:46;52.65;;;40.28;;
54899;SDS011;40801;41.924;25.562;2023-12-20T06:23:11;38.95;;;33.05;;
54899;SDS011;40801;41.924;25.562;2023-12-20T06:25:37;41.42;;;33.40;;
54899;SDS011;40801;41.924;25.562;2023-12-20T06:28:02;40.95;;;36.13;;
54899;SDS011;40801;41.924;25.562;2023-12-20T06:30:27;41.72;;;35.03;;
54899;SDS011;40801;41.924;25.562;2023-12-20T06:32:53;43.80;;;35.67;;
54899;SDS011;40801;41.924;25.562;2023-12-20T06:35:19;50.25;;;42.15;;
54899;SDS011;40801;41.924;25.562;2023-12-20T06:37:45;53.15;;;45.28;;
54899;SDS011;40801;41.924;25.562;2023-12-20T06:40:10;57.92;;;45.55;;
54899;SDS011;40801;41.924;25.562;2023-12-20T06:42:36;52.42;;;43.03;;
54899;SDS011;40801;41.924;25.562;2023-12-20T06:45:02;56.70;;;45.50;;
54899;SDS011;40801;41.924;25.562;2023-12-20T06:47:28;84.40;;;63.13;;
54899;SDS011;40801;41.924;25.562;2023-12-20T06:49:53;66.05;;;53.60;;
54899;SDS011;40801;41.924;25.562;2023-12-20T06:52:19;56.67;;;46.55;;
54899;SDS011;40801;41.924;25.562;2023-12-20T06:54:44;66.72;;;51.95;;
54899;SDS011;40801;41.924;25.562;2023-12-20T06:57:09;58.45;;;48.88;;
54899;SDS011;40801;41.924;25.562;2023-12-20T06:59:41;54.83;;;44.47;;
54899;SDS011;40801;41.924;25.562;2023-12-20T07:02:07;53.78;;;44.30;;
54899;SDS011;40801;41.924;25.562;2023-12-20T07:04:33;54.22;;;44.60;;
54899;SDS011;40801;41.924;25.562;2023-12-20T07:06:59;61.15;;;50.83;;
54899;SDS011;40801;41.924;25.562;2023-12-20T07:09:25;401.73;;;283.67;;
54899;SDS011;40801;41.924;25.562;2023-12-20T07:11:51;123.70;;;91.35;;
54899;SDS011;40801;41.924;25.562;2023-12-20T07:14:17;119.65;;;87.75;;
54899;SDS011;40801;41.924;25.562;2023-12-20T07:16:42;111.38;;;87.03;;
54899;SDS011;40801;41.924;25.562;2023-12-20T07:19:07;130.50;;;92.90;;
54899;SDS011;40801;41.924;25.562;2023-12-20T07:21:33;132.95;;;95.32;;
54899;SDS011;40801;41.924;25.562;2023-12-20T07:23:58;147.93;;;108.47;;
54899;SDS011;40801;41.924;25.562;2023-12-20T07:26:24;128.43;;;97.50;;
54899;SDS011;40801;41.924;25.562;2023-12-20T07:28:49;143.60;;;107.00;;
54899;SDS011;40801;41.924;25.562;2023-12-20T07:31:15;148.40;;;108.40;;
54899;SDS011;40801;41.924;25.562;2023-12-20T07:33:41;132.45;;;105.00;;
54899;SDS011;40801;41.924;25.562;2023-12-20T07:36:06;142.98;;;111.45;;
54899;SDS011;40801;41.924;25.562;2023-12-20T07:38:32;219.98;;;158.57;;
54899;SDS011;40801;41.924;25.562;2023-12-20T07:40:58;235.98;;;180.85;;
54899;SDS011;40801;41.924;25.562;2023-12-20T07:43:23;227.70;;;173.60;;
54899;SDS011;40801;41.924;25.562;2023-12-20T07:45:49;259.95;;;196.13;;
54899;SDS011;40801;41.924;25.562;2023-12-20T07:48:14;206.75;;;166.43;;
54899;SDS011;40801;41.924;25.562;2023-12-20T07:50:40;215.85;;;169.48;;
54899;SDS011;40801;41.924;25.562;2023-12-20T07:53:05;198.38;;;152.82;;
54899;SDS011;40801;41.924;25.562;2023-12-20T07:55:31;185.75;;;149.60;;
54899;SDS011;40801;41.924;25.562;2023-12-20T07:57:57;211.23;;;171.00;;
54899;SDS011;40801;41.924;25.562;2023-12-20T08:00:23;220.10;;;178.50;;
54899;SDS011;40801;41.924;25.562;2023-12-20T08:02:48;169.98;;;136.90;;
54899;SDS011;40801;41.924;25.562;2023-12-20T08:05:13;134.82;;;111.57;;
54899;SDS011;40801;41.924;25.562;2023-12-20T08:07:39;151.20;;;114.70;;
54899;SDS011;40801;41.924;25.562;2023-12-20T08:10:05;136.25;;;108.30;;
54899;SDS011;40801;41.924;25.562;2023-12-20T08:12:30;135.63;;;107.45;;
54899;SDS011;40801;41.924;25.562;2023-12-20T08:14:56;138.82;;;112.80;;
54899;SDS011;40801;41.924;25.562;2023-12-20T08:17:22;144.57;;;109.97;;
54899;SDS011;40801;41.924;25.562;2023-12-20T08:19:48;138.70;;;113.93;;
54899;SDS011;40801;41.924;25.562;2023-12-20T08:22:14;141.77;;;113.95;;
54899;SDS011;40801;41.924;25.562;2023-12-20T08:24:39;140.65;;;112.38;;
54899;SDS011;40801;41.924;25.562;2023-12-20T08:27:05;144.10;;;117.38;;
54899;SDS011;40801;41.924;25.562;2023-12-20T08:29:30;167.50;;;128.95;;
54899;SDS011;40801;41.924;25.562;2023-12-20T08:31:56;156.13;;;131.60;;
54899;SDS011;40801;41.924;25.562;2023-12-20T08:34:21;169.23;;;136.32;;
54899;SDS011;40801;41.924;25.562;2023-12-20T08:36:48;185.15;;;151.25;;
54899;SDS011;40801;41.924;25.562;2023-12-20T08:39:16;183.35;;;142.38;;
54899;SDS011;40801;41.924;25.562;2023-12-20T08:41:41;183.30;;;149.55;;
54899;SDS011;40801;41.924;25.562;2023-12-20T08:44:07;167.20;;;137.90;;
54899;SDS011;40801;41.924;25.562;2023-12-20T08:46:32;182.40;;;152.68;;
54899;SDS011;40801;41.924;25.562;2023-12-20T08:48:57;145.52;;;128.07;;
54899;SDS011;40801;41.924;25.562;2023-12-20T08:51:23;149.75;;;130.60;;
54899;SDS011;40801;41.924;25.562;2023-12-20T08:53:50;142.20;;;123.20;;
54899;SDS011;40801;41.924;25.562;2023-12-20T08:56:16;128.23;;;114.18;;
54899;SDS011;40801;41.924;25.562;2023-12-20T08:58:43;120.30;;;107.15;;
54899;SDS011;40801;41.924;25.562;2023-12-20T09:01:08;109.15;;;97.15;;
54899;SDS011;40801;41.924;25.562;2023-12-20T09:03:34;112.57;;;96.72;;
54899;SDS011;40801;41.924;25.562;2023-12-20T09:05:59;117.78;;;105.10;;
54899;SDS011;40801;41.924;25.562;2023-12-20T09:08:25;119.20;;;106.15;;
54899;SDS011;40801;41.924;25.562;2023-12-20T09:10:50;114.75;;;102.55;;
54899;SDS011;40801;41.924;25.562;2023-12-20T09:13:16;101.13;;;90.30;;
54899;SDS011;40801;41.924;25.562;2023-12-20T09:15:41;100.20;;;89.72;;
54899;SDS011;40801;41.924;25.562;2023-12-20T09:18:07;81.97;;;73.53;;
54899;SDS011;40801;41.924;25.562;2023-12-20T09:20:33;90.90;;;81.28;;
54899;SDS011;40801;41.924;25.562;2023-12-20T09:22:58;98.53;;;88.43;;
54899;SDS011;40801;41.924;25.562;2023-12-20T09:25:24;80.03;;;71.65;;
54899;SDS011;40801;41.924;25.562;2023-12-20T09:27:51;77.30;;;69.57;;
54899;SDS011;40801;41.924;25.562;2023-12-20T09:30:17;79.65;;;70.78;;
54899;SDS011;40801;41.924;25.562;2023-12-20T09:32:43;72.80;;;65.03;;
54899;SDS011;40801;41.924;25.562;2023-12-20T09:35:08;77.03;;;68.78;;
54899;SDS011;40801;41.924;25.562;2023-12-20T09:37:34;70.82;;;63.40;;
54899;SDS011;40801;41.924;25.562;2023-12-20T09:39:59;68.32;;;61.17;;
54899;SDS011;40801;41.924;25.562;2023-12-20T09:42:29;47.05;;;40.88;;
54899;SDS011;40801;41.924;25.562;2023-12-20T09:45:03;43.00;;;38.57;;
54899;SDS011;40801;41.924;25.562;2023-12-20T09:47:33;33.03;;;29.92;;
54899;SDS011;40801;41.924;25.562;2023-12-20T09:50:00;31.50;;;28.45;;
54899;SDS011;40801;41.924;25.562;2023-12-20T09:52:25;29.90;;;27.10;;
54899;SDS011;40801;41.924;25.562;2023-12-20T09:54:52;29.55;;;26.75;;
54899;SDS011;40801;41.924;25.562;2023-12-20T09:57:19;25.90;;;23.40;;
54899;SDS011;40801;41.924;25.562;2023-12-20T09:59:45;23.52;;;21.27;;
54899;SDS011;40801;41.924;25.562;2023-12-20T10:02:12;22.25;;;20.25;;
54899;SDS011;40801;41.924;25.562;2023-12-20T10:04:41;15.60;;;14.10;;
54899;SDS011;40801;41.924;25.562;2023-12-20T10:07:12;19.17;;;17.27;;
54899;SDS011;40801;41.924;25.562;2023-12-20T10:09:37;19.05;;;17.35;;
54899;SDS011;40801;41.924;25.562;2023-12-20T10:12:03;22.35;;;20.15;;
54899;SDS011;40801;41.924;25.562;2023-12-20T10:14:30;17.17;;;15.65;;
54899;SDS011;40801;41.924;25.562;2023-12-20T10:17:01;19.70;;;17.83;;
54899;SDS011;40801;41.924;25.562;2023-12-20T10:19:28;18.13;;;16.52;;
54899;SDS011;40801;41.924;25.562;2023-12-20T10:21:54;18.85;;;17.13;;
54899;SDS011;40801;41.924;25.562;2023-12-20T10:24:19;21.42;;;19.42;;
54899;SDS011;40801;41.924;25.562;2023-12-20T10:26:45;22.00;;;19.98;;
54899;SDS011;40801;41.924;25.562;2023-12-20T10:29:11;25.27;;;22.77;;
54899;SDS011;40801;41.924;25.562;2023-12-20T10:31:36;23.63;;;21.33;;
54899;SDS011;40801;41.924;25.562;2023-12-20T10:34:03;22.58;;;20.48;;
54899;SDS011;40801;41.924;25.562;2023-12-20T10:36:30;20.95;;;19.05;;
54899;SDS011;40801;41.924;25.562;2023-12-20T10:38:57;42.05;;;38.00;;
54899;SDS011;40801;41.924;25.562;2023-12-20T10:41:27;20.48;;;18.42;;
54899;SDS011;40801;41.924;25.562;2023-12-20T10:44:02;22.67;;;20.50;;
54899;SDS011;40801;41.924;25.562;2023-12-20T10:46:30;25.70;;;23.48;;
54899;SDS011;40801;41.924;25.562;2023-12-20T10:48:57;27.10;;;24.55;;
54899;SDS011;40801;41.924;25.562;2023-12-20T10:51:23;38.00;;;34.30;;
54899;SDS011;40801;41.924;25.562;2023-12-20T10:53:51;30.87;;;27.70;;
54899;SDS011;40801;41.924;25.562;2023-12-20T10:56:18;27.70;;;24.75;;
54899;SDS011;40801;41.924;25.562;2023-12-20T10:58:46;20.65;;;18.73;;
54899;SDS011;40801;41.924;25.562;2023-12-20T11:01:16;26.70;;;24.50;;
54899;SDS011;40801;41.924;25.562;2023-12-20T11:03:49;24.50;;;20.90;;
54899;SDS011;40801;41.924;25.562;2023-12-20T11:06:26;18.13;;;16.27;;
54899;SDS011;40801;41.924;25.562;2023-12-20T11:14:46;21.35;;;19.55;;
54899;SDS011;40801;41.924;25.562;2023-12-20T11:17:10;15.63;;;14.18;;
54899;SDS011;40801;41.924;25.562;2023-12-20T11:20:03;17.63;;;15.73;;
54899;SDS011;40801;41.924;25.562;2023-12-20T11:22:30;20.48;;;17.65;;
54899;SDS011;40801;41.924;25.562;2023-12-20T11:25:02;22.27;;;19.40;;
54899;SDS011;40801;41.924;25.562;2023-12-20T11:27:30;18.52;;;16.58;;
54899;SDS011;40801;41.924;25.562;2023-12-20T11:29:56;18.50;;;16.60;;
54899;SDS011;40801;41.924;25.562;2023-12-20T11:34:57;40.05;;;36.03;;
54899;SDS011;40801;41.924;25.562;2023-12-20T11:37:30;48.35;;;43.75;;
54899;SDS011;40801;41.924;25.562;2023-12-20T11:40:00;37.35;;;33.72;;
54899;SDS011;40801;41.924;25.562;2023-12-20T11:42:37;24.92;;;22.40;;
54899;SDS011;40801;41.924;25.562;2023-12-20T11:45:04;23.90;;;21.42;;
54899;SDS011;40801;41.924;25.562;2023-12-20T11:47:30;27.67;;;24.88;;
54899;SDS011;40801;41.924;25.562;2023-12-20T11:49:56;23.83;;;21.67;;
54899;SDS011;40801;41.924;25.562;2023-12-20T11:52:22;27.65;;;24.98;;
54899;SDS011;40801;41.924;25.562;2023-12-20T11:54:47;30.77;;;27.70;;
54899;SDS011;40801;41.924;25.562;2023-12-20T11:57:13;25.92;;;23.45;;
54899;SDS011;40801;41.924;25.562;2023-12-20T11:59:38;30.80;;;27.40;;
54899;SDS011;40801;41.924;25.562;2023-12-20T12:02:04;27.38;;;24.55;;
54899;SDS011;40801;41.924;25.562;2023-12-20T12:04:29;41.42;;;31.55;;
54899;SDS011;40801;41.924;25.562;2023-12-20T12:06:55;29.25;;;24.63;;
54899;SDS011;40801;41.924;25.562;2023-12-20T12:09:20;28.27;;;24.98;;
54899;SDS011;40801;41.924;25.562;2023-12-20T12:11:46;29.02;;;25.95;;
54899;SDS011;40801;41.924;25.562;2023-12-20T12:14:11;28.33;;;25.35;;
54899;SDS011;40801;41.924;25.562;2023-12-20T12:16:37;22.80;;;20.45;;
54899;SDS011;40801;41.924;25.562;2023-12-20T12:19:02;23.85;;;21.52;;
54899;SDS011;40801;41.924;25.562;2023-12-20T12:21:29;29.88;;;26.95;;
54899;SDS011;40801;41.924;25.562;2023-12-20T12:24:06;41.05;;;24.15;;
54899;SDS011;40801;41.924;25.562;2023-12-20T12:26:32;24.30;;;19.23;;
54899;SDS011;40801;41.924;25.562;2023-12-20T12:28:57;19.77;;;16.10;;
54899;SDS011;40801;41.924;25.562;2023-12-20T12:31:23;22.27;;;19.98;;
54899;SDS011;40801;41.924;25.562;2023-12-20T12:33:50;22.73;;;20.50;;
54899;SDS011;40801;41.924;25.562;2023-12-20T12:36:16;23.92;;;21.42;;
54899;SDS011;40801;41.924;25.562;2023-12-20T12:38:42;26.88;;;24.17;;
54899;SDS011;40801;41.924;25.562;2023-12-20T12:41:08;26.30;;;23.45;;
54899;SDS011;40801;41.924;25.562;2023-12-20T12:43:35;27.20;;;24.40;;
54899;SDS011;40801;41.924;25.562;2023-12-20T12:46:00;26.50;;;23.95;;
54899;SDS011;40801;41.924;25.562;2023-12-20T12:48:26;27.10;;;24.30;;
54899;SDS011;40801;41.924;25.562;2023-12-20T12:50:53;26.08;;;23.52;;
54899;SDS011;40801;41.924;25.562;2023-12-20T12:53:19;25.88;;;23.42;;
54899;SDS011;40801;41.924;25.562;2023-12-20T12:55:44;27.00;;;24.10;;
54899;SDS011;40801;41.924;25.562;2023-12-20T12:58:10;26.45;;;23.75;;
54899;SDS011;40801;41.924;25.562;2023-12-20T13:00:36;33.88;;;30.35;;
54899;SDS011;40801;41.924;25.562;2023-12-20T13:03:01;30.05;;;27.00;;
54899;SDS011;40801;41.924;25.562;2023-12-20T13:05:27;31.00;;;27.77;;
54899;SDS011;40801;41.924;25.562;2023-12-20T13:07:53;30.95;;;24.35;;
54899;SDS011;40801;41.924;25.562;2023-12-20T13:10:18;27.20;;;24.42;;
54899;SDS011;40801;41.924;25.562;2023-12-20T13:12:43;29.25;;;26.05;;
54899;SDS011;40801;41.924;25.562;2023-12-20T13:15:09;31.80;;;28.40;;
54899;SDS011;40801;41.924;25.562;2023-12-20T13:17:34;29.25;;;26.30;;
54899;SDS011;40801;41.924;25.562;2023-12-20T13:20:00;32.85;;;29.45;;
54899;SDS011;40801;41.924;25.562;2023-12-20T13:22:25;29.33;;;26.52;;
54899;SDS011;40801;41.924;25.562;2023-12-20T13:24:51;24.50;;;22.15;;
54899;SDS011;40801;41.924;25.562;2023-12-20T13:27:16;23.70;;;21.48;;
54899;SDS011;40801;41.924;25.562;2023-12-20T13:29:41;26.63;;;23.75;;
54899;SDS011;40801;41.924;25.562;2023-12-20T13:32:07;29.33;;;26.45;;
54899;SDS011;40801;41.924;25.562;2023-12-20T13:34:32;35.33;;;31.63;;
54899;SDS011;40801;41.924;25.562;2023-12-20T13:36:58;45.80;;;38.58;;
54899;SDS011;40801;41.924;25.562;2023-12-20T13:39:23;43.35;;;38.63;;
54899;SDS011;40801;41.924;25.562;2023-12-20T13:41:49;38.63;;;33.97;;
54899;SDS011;40801;41.924;25.562;2023-12-20T13:44:14;41.83;;;36.88;;
54899;SDS011;40801;41.924;25.562;2023-12-20T13:46:40;40.00;;;35.80;;
54899;SDS011;40801;41.924;25.562;2023-12-20T13:49:06;38.42;;;34.30;;
54899;SDS011;40801;41.924;25.562;2023-12-20T13:51:32;39.83;;;35.80;;
54899;SDS011;40801;41.924;25.562;2023-12-20T13:53:57;41.45;;;37.17;;
54899;SDS011;40801;41.924;25.562;2023-12-20T13:56:22;47.28;;;40.47;;
54899;SDS011;40801;41.924;25.562;2023-12-20T13:58:48;60.55;;;41.72;;
54899;SDS011;40801;41.924;25.562;2023-12-20T14:01:15;53.88;;;41.15;;
54899;SDS011;40801;41.924;25.562;2023-12-20T14:03:40;53.70;;;43.88;;
54899;SDS011;40801;41.924;25.562;2023-12-20T14:06:06;50.00;;;41.95;;
54899;SDS011;40801;41.924;25.562;2023-12-20T14:08:32;53.53;;;44.65;;